sensor_id;sensor_type;location;lat;lon;timestamp;temperature;humidity
19261;DHT22;9764;48.114;11.670;2023-02-28T00:01:28;18.10;85.80
19261;DHT22;9764;48.114;11.670;2023-02-28T00:03:58;18.10;85.80
19261;DHT22;9764;48.114;11.670;2023-02-28T00:06:27;18.10;85.80
19261;DHT22;9764;48.114;11.670;2023-02-28T00:08:55;18.10;85.80
19261;DHT22;9764;48.114;11.670;2023-02-28T00:11:23;18.10;85.80
19261;DHT22;9764;48.114;11.670;2023-02-28T00:13:52;18.10;85.80
19261;DHT22;9764;48.114;11.670;2023-02-28T00:16:21;18.10;85.80
19261;DHT22;9764;48.114;11.670;2023-02-28T00:18:50;18.10;85.80
19261;DHT22;9764;48.114;11.670;2023-02-28T00:21:20;18.10;85.90
19261;DHT22;9764;48.114;11.670;2023-02-28T00:23:49;18.10;85.80
19261;DHT22;9764;48.114;11.670;2023-02-28T00:26:17;18.10;85.80
19261;DHT22;9764;48.114;11.670;2023-02-28T00:28:49;18.10;85.90
19261;DHT22;9764;48.114;11.670;2023-02-28T00:31:19;18.10;85.80
19261;DHT22;9764;48.114;11.670;2023-02-28T00:33:47;18.00;85.80
19261;DHT22;9764;48.114;11.670;2023-02-28T00:36:17;18.10;85.80
19261;DHT22;9764;48.114;11.670;2023-02-28T00:38:47;18.00;85.80
19261;DHT22;9764;48.114;11.670;2023-02-28T00:41:15;18.00;85.80
19261;DHT22;9764;48.114;11.670;2023-02-28T00:43:44;18.10;85.90
19261;DHT22;9764;48.114;11.670;2023-02-28T00:46:12;18.00;85.80
19261;DHT22;9764;48.114;11.670;2023-02-28T00:48:40;18.00;85.80
19261;DHT22;9764;48.114;11.670;2023-02-28T00:51:09;18.00;85.80
19261;DHT22;9764;48.114;11.670;2023-02-28T00:53:37;18.00;85.80
19261;DHT22;9764;48.114;11.670;2023-02-28T00:56:07;18.00;85.80
19261;DHT22;9764;48.114;11.670;2023-02-28T00:58:35;18.00;85.80
19261;DHT22;9764;48.114;11.670;2023-02-28T01:01:04;18.00;85.80
19261;DHT22;9764;48.114;11.670;2023-02-28T01:03:32;18.00;85.90
19261;DHT22;9764;48.114;11.670;2023-02-28T01:06:00;18.00;85.80
19261;DHT22;9764;48.114;11.670;2023-02-28T01:08:28;18.00;85.80
19261;DHT22;9764;48.114;11.670;2023-02-28T01:10:57;18.00;85.80
19261;DHT22;9764;48.114;11.670;2023-02-28T01:13:29;18.00;85.80
19261;DHT22;9764;48.114;11.670;2023-02-28T01:15:57;18.00;85.90
19261;DHT22;9764;48.114;11.670;2023-02-28T01:18:25;18.00;85.90
19261;DHT22;9764;48.114;11.670;2023-02-28T01:20:54;18.00;85.90
19261;DHT22;9764;48.114;11.670;2023-02-28T01:23:23;18.00;86.20
19261;DHT22;9764;48.114;11.670;2023-02-28T01:25:52;18.00;85.90
19261;DHT22;9764;48.114;11.670;2023-02-28T01:28:20;18.00;85.80
19261;DHT22;9764;48.114;11.670;2023-02-28T01:30:51;18.00;85.90
19261;DHT22;9764;48.114;11.670;2023-02-28T01:33:19;18.00;85.90
19261;DHT22;9764;48.114;11.670;2023-02-28T01:35:48;18.00;85.90
19261;DHT22;9764;48.114;11.670;2023-02-28T01:38:16;18.00;85.80
19261;DHT22;9764;48.114;11.670;2023-02-28T01:40:49;18.00;85.90
19261;DHT22;9764;48.114;11.670;2023-02-28T01:43:22;18.00;85.90
19261;DHT22;9764;48.114;11.670;2023-02-28T01:45:53;18.00;85.80
19261;DHT22;9764;48.114;11.670;2023-02-28T01:48:25;18.00;85.80
19261;DHT22;9764;48.114;11.670;2023-02-28T01:50:55;18.00;85.90
19261;DHT22;9764;48.114;11.670;2023-02-28T01:53:29;18.00;85.90
19261;DHT22;9764;48.114;11.670;2023-02-28T01:55:59;17.90;85.80
19261;DHT22;9764;48.114;11.670;2023-02-28T01:58:27;17.90;85.90
19261;DHT22;9764;48.114;11.670;2023-02-28T02:00:57;18.00;85.90
19261;DHT22;9764;48.114;11.670;2023-02-28T02:03:29;17.90;85.80
19261;DHT22;9764;48.114;11.670;2023-02-28T02:05:57;17.90;85.90
19261;DHT22;9764;48.114;11.670;2023-02-28T02:08:28;17.90;85.90
19261;DHT22;9764;48.114;11.670;2023-02-28T02:10:58;17.90;85.80
19261;DHT22;9764;48.114;11.670;2023-02-28T02:13:42;17.90;85.90
19261;DHT22;9764;48.114;11.670;2023-02-28T02:16:34;17.90;85.80
19261;DHT22;9764;48.114;11.670;2023-02-28T02:19:14;17.90;85.80
19261;DHT22;9764;48.114;11.670;2023-02-28T02:24:59;17.90;85.90
19261;DHT22;9764;48.114;11.670;2023-02-28T02:27:55;17.90;85.90
19261;DHT22;9764;48.114;11.670;2023-02-28T02:30:44;17.90;85.90
19261;DHT22;9764;48.114;11.670;2023-02-28T02:33:39;17.90;85.90
19261;DHT22;9764;48.114;11.670;2023-02-28T02:36:19;17.90;85.90
19261;DHT22;9764;48.114;11.670;2023-02-28T02:38:55;17.90;85.90
19261;DHT22;9764;48.114;11.670;2023-02-28T02:41:30;17.90;85.90
19261;DHT22;9764;48.114;11.670;2023-02-28T02:44:09;17.90;85.90
19261;DHT22;9764;48.114;11.670;2023-02-28T02:46:42;17.90;85.90
19261;DHT22;9764;48.114;11.670;2023-02-28T02:49:15;17.90;85.90
19261;DHT22;9764;48.114;11.670;2023-02-28T02:51:46;17.90;85.90
19261;DHT22;9764;48.114;11.670;2023-02-28T02:54:17;17.90;85.90
19261;DHT22;9764;48.114;11.670;2023-02-28T02:56:49;17.90;85.90
19261;DHT22;9764;48.114;11.670;2023-02-28T02:59:21;17.90;86.00
19261;DHT22;9764;48.114;11.670;2023-02-28T03:01:53;17.90;85.90
19261;DHT22;9764;48.114;11.670;2023-02-28T03:04:25;17.90;86.00
19261;DHT22;9764;48.114;11.670;2023-02-28T03:06:55;17.90;85.90
19261;DHT22;9764;48.114;11.670;2023-02-28T03:09:25;17.90;85.90
19261;DHT22;9764;48.114;11.670;2023-02-28T03:11:55;17.90;86.00
19261;DHT22;9764;48.114;11.670;2023-02-28T03:14:34;17.90;85.90
19261;DHT22;9764;48.114;11.670;2023-02-28T03:17:24;17.90;86.00
19261;DHT22;9764;48.114;11.670;2023-02-28T03:20:07;17.90;85.90
19261;DHT22;9764;48.114;11.670;2023-02-28T03:22:46;17.90;86.00
19261;DHT22;9764;48.114;11.670;2023-02-28T03:25:23;17.90;86.00
19261;DHT22;9764;48.114;11.670;2023-02-28T03:27:59;17.90;86.00
19261;DHT22;9764;48.114;11.670;2023-02-28T03:30:34;17.90;86.00
19261;DHT22;9764;48.114;11.670;2023-02-28T03:33:08;17.90;85.90
19261;DHT22;9764;48.114;11.670;2023-02-28T03:35:42;17.90;85.90
19261;DHT22;9764;48.114;11.670;2023-02-28T03:38:15;17.90;86.00
19261;DHT22;9764;48.114;11.670;2023-02-28T03:40:48;17.90;86.00
19261;DHT22;9764;48.114;11.670;2023-02-28T03:43:21;17.90;85.90
19261;DHT22;9764;48.114;11.670;2023-02-28T03:45:51;17.90;85.90
19261;DHT22;9764;48.114;11.670;2023-02-28T03:48:23;17.90;86.00
19261;DHT22;9764;48.114;11.670;2023-02-28T03:50:54;17.90;86.00
19261;DHT22;9764;48.114;11.670;2023-02-28T03:53:27;17.90;86.00
19261;DHT22;9764;48.114;11.670;2023-02-28T03:55:59;17.90;86.00
19261;DHT22;9764;48.114;11.670;2023-02-28T03:58:31;17.90;86.00
19261;DHT22;9764;48.114;11.670;2023-02-28T04:01:03;17.90;86.00
19261;DHT22;9764;48.114;11.670;2023-02-28T04:03:35;17.90;86.00
19261;DHT22;9764;48.114;11.670;2023-02-28T04:06:05;17.90;86.00
19261;DHT22;9764;48.114;11.670;2023-02-28T04:08:35;17.90;86.00
19261;DHT22;9764;48.114;11.670;2023-02-28T04:11:07;17.90;86.00
19261;DHT22;9764;48.114;11.670;2023-02-28T04:13:40;17.90;86.00
19261;DHT22;9764;48.114;11.670;2023-02-28T04:16:12;17.90;86.00
19261;DHT22;9764;48.114;11.670;2023-02-28T04:18:58;17.90;86.00
19261;DHT22;9764;48.114;11.670;2023-02-28T04:21:30;17.90;86.00
19261;DHT22;9764;48.114;11.670;2023-02-28T04:24:01;17.90;86.10
19261;DHT22;9764;48.114;11.670;2023-02-28T04:26:29;17.80;86.00
19261;DHT22;9764;48.114;11.670;2023-02-28T04:28:59;17.80;86.00
19261;DHT22;9764;48.114;11.670;2023-02-28T04:31:27;17.90;86.10
19261;DHT22;9764;48.114;11.670;2023-02-28T04:33:56;17.80;86.00
19261;DHT22;9764;48.114;11.670;2023-02-28T04:36:25;17.90;86.10
19261;DHT22;9764;48.114;11.670;2023-02-28T04:38:54;17.90;86.90
19261;DHT22;9764;48.114;11.670;2023-02-28T04:41:23;17.90;86.10
19261;DHT22;9764;48.114;11.670;2023-02-28T04:43:53;17.90;86.10
19261;DHT22;9764;48.114;11.670;2023-02-28T04:46:23;17.80;86.10
19261;DHT22;9764;48.114;11.670;2023-02-28T04:48:51;17.90;86.20
19261;DHT22;9764;48.114;11.670;2023-02-28T04:51:20;17.90;86.10
19261;DHT22;9764;48.114;11.670;2023-02-28T04:53:48;17.90;86.20
19261;DHT22;9764;48.114;11.670;2023-02-28T04:56:20;17.80;86.10
19261;DHT22;9764;48.114;11.670;2023-02-28T04:58:50;17.90;86.20
19261;DHT22;9764;48.114;11.670;2023-02-28T05:01:22;17.80;86.20
19261;DHT22;9764;48.114;11.670;2023-02-28T05:03:52;17.90;86.20
19261;DHT22;9764;48.114;11.670;2023-02-28T05:06:22;17.80;86.10
19261;DHT22;9764;48.114;11.670;2023-02-28T05:08:51;17.80;86.20
19261;DHT22;9764;48.114;11.670;2023-02-28T05:11:20;17.90;86.20
19261;DHT22;9764;48.114;11.670;2023-02-28T05:13:51;17.90;86.20
19261;DHT22;9764;48.114;11.670;2023-02-28T05:16:19;17.80;86.20
19261;DHT22;9764;48.114;11.670;2023-02-28T05:18:48;17.90;86.20
19261;DHT22;9764;48.114;11.670;2023-02-28T05:21:28;17.90;86.20
19261;DHT22;9764;48.114;11.670;2023-02-28T05:24:00;17.90;86.20
19261;DHT22;9764;48.114;11.670;2023-02-28T05:26:29;17.90;86.20
19261;DHT22;9764;48.114;11.670;2023-02-28T05:28:58;17.90;86.20
19261;DHT22;9764;48.114;11.670;2023-02-28T05:31:27;17.90;86.20
19261;DHT22;9764;48.114;11.670;2023-02-28T05:33:55;17.90;86.20
19261;DHT22;9764;48.114;11.670;2023-02-28T05:36:24;17.90;86.20
19261;DHT22;9764;48.114;11.670;2023-02-28T05:38:52;17.90;86.20
19261;DHT22;9764;48.114;11.670;2023-02-28T05:41:21;17.90;86.20
19261;DHT22;9764;48.114;11.670;2023-02-28T05:43:49;17.90;87.00
19261;DHT22;9764;48.114;11.670;2023-02-28T05:46:19;17.90;86.20
19261;DHT22;9764;48.114;11.670;2023-02-28T05:48:48;17.90;86.20
19261;DHT22;9764;48.114;11.670;2023-02-28T05:51:16;17.90;86.20
19261;DHT22;9764;48.114;11.670;2023-02-28T05:53:45;17.90;86.20
19261;DHT22;9764;48.114;11.670;2023-02-28T05:56:15;17.90;86.20
19261;DHT22;9764;48.114;11.670;2023-02-28T05:58:43;17.90;86.20
19261;DHT22;9764;48.114;11.670;2023-02-28T06:01:30;17.90;86.20
19261;DHT22;9764;48.114;11.670;2023-02-28T06:03:59;17.90;86.20
19261;DHT22;9764;48.114;11.670;2023-02-28T06:06:28;17.90;86.10
19261;DHT22;9764;48.114;11.670;2023-02-28T06:08:57;17.90;86.20
19261;DHT22;9764;48.114;11.670;2023-02-28T06:11:25;17.90;86.10
19261;DHT22;9764;48.114;11.670;2023-02-28T06:13:55;17.90;86.90
19261;DHT22;9764;48.114;11.670;2023-02-28T06:16:26;17.90;86.20
19261;DHT22;9764;48.114;11.670;2023-02-28T06:18:56;17.90;86.90
19261;DHT22;9764;48.114;11.670;2023-02-28T06:21:25;17.90;86.10
19261;DHT22;9764;48.114;11.670;2023-02-28T06:23:55;17.90;86.10
19261;DHT22;9764;48.114;11.670;2023-02-28T06:26:24;17.90;86.10
19261;DHT22;9764;48.114;11.670;2023-02-28T06:28:52;17.90;86.10
19261;DHT22;9764;48.114;11.670;2023-02-28T06:31:21;17.90;86.10
19261;DHT22;9764;48.114;11.670;2023-02-28T06:33:51;17.90;87.00
19261;DHT22;9764;48.114;11.670;2023-02-28T06:36:19;17.90;86.10
19261;DHT22;9764;48.114;11.670;2023-02-28T06:38:48;17.90;86.10
19261;DHT22;9764;48.114;11.670;2023-02-28T06:41:22;17.90;86.10
19261;DHT22;9764;48.114;11.670;2023-02-28T06:43:50;17.90;86.00
19261;DHT22;9764;48.114;11.670;2023-02-28T06:46:19;17.90;86.10
19261;DHT22;9764;48.114;11.670;2023-02-28T06:48:48;17.90;86.10
19261;DHT22;9764;48.114;11.670;2023-02-28T06:51:20;17.90;86.10
19261;DHT22;9764;48.114;11.670;2023-02-28T06:53:49;17.90;86.10
19261;DHT22;9764;48.114;11.670;2023-02-28T06:56:18;17.90;86.10
19261;DHT22;9764;48.114;11.670;2023-02-28T06:58:48;17.90;86.00
19261;DHT22;9764;48.114;11.670;2023-02-28T07:01:16;17.90;86.00
19261;DHT22;9764;48.114;11.670;2023-02-28T07:03:46;17.90;86.00
19261;DHT22;9764;48.114;11.670;2023-02-28T07:06:20;17.90;86.00
19261;DHT22;9764;48.114;11.670;2023-02-28T07:08:51;17.90;86.00
19261;DHT22;9764;48.114;11.670;2023-02-28T07:11:20;17.90;86.00
19261;DHT22;9764;48.114;11.670;2023-02-28T07:13:49;17.90;86.00
19261;DHT22;9764;48.114;11.670;2023-02-28T07:16:18;17.90;86.00
19261;DHT22;9764;48.114;11.670;2023-02-28T07:18:47;17.90;86.00
19261;DHT22;9764;48.114;11.670;2023-02-28T07:21:15;17.90;86.00
19261;DHT22;9764;48.114;11.670;2023-02-28T07:23:45;17.90;86.00
19261;DHT22;9764;48.114;11.670;2023-02-28T07:26:16;17.90;86.00
19261;DHT22;9764;48.114;11.670;2023-02-28T07:28:46;17.90;86.00
19261;DHT22;9764;48.114;11.670;2023-02-28T07:31:15;17.90;86.00
19261;DHT22;9764;48.114;11.670;2023-02-28T07:33:44;17.90;86.00
19261;DHT22;9764;48.114;11.670;2023-02-28T07:36:14;17.90;86.00
19261;DHT22;9764;48.114;11.670;2023-02-28T07:38:46;17.90;85.90
19261;DHT22;9764;48.114;11.670;2023-02-28T07:41:17;17.90;85.90
19261;DHT22;9764;48.114;11.670;2023-02-28T07:43:46;17.90;85.90
19261;DHT22;9764;48.114;11.670;2023-02-28T07:46:16;17.90;85.90
19261;DHT22;9764;48.114;11.670;2023-02-28T07:48:47;17.90;85.90
19261;DHT22;9764;48.114;11.670;2023-02-28T07:51:15;17.90;85.90
19261;DHT22;9764;48.114;11.670;2023-02-28T07:53:45;17.90;85.90
19261;DHT22;9764;48.114;11.670;2023-02-28T07:56:13;17.90;85.90
19261;DHT22;9764;48.114;11.670;2023-02-28T07:58:41;17.90;85.90
19261;DHT22;9764;48.114;11.670;2023-02-28T08:01:10;17.90;85.80
19261;DHT22;9764;48.114;11.670;2023-02-28T08:03:39;18.00;85.90
19261;DHT22;9764;48.114;11.670;2023-02-28T08:06:16;18.00;85.90
19261;DHT22;9764;48.114;11.670;2023-02-28T08:08:46;18.00;85.90
19261;DHT22;9764;48.114;11.670;2023-02-28T08:11:14;18.00;85.80
19261;DHT22;9764;48.114;11.670;2023-02-28T08:13:43;18.00;85.80
19261;DHT22;9764;48.114;11.670;2023-02-28T08:16:13;18.00;85.90
19261;DHT22;9764;48.114;11.670;2023-02-28T08:18:44;18.00;85.80
19261;DHT22;9764;48.114;11.670;2023-02-28T08:21:13;18.00;85.80
19261;DHT22;9764;48.114;11.670;2023-02-28T08:23:41;18.00;85.80
19261;DHT22;9764;48.114;11.670;2023-02-28T08:26:11;18.00;85.80
19261;DHT22;9764;48.114;11.670;2023-02-28T08:28:39;18.00;85.80
19261;DHT22;9764;48.114;11.670;2023-02-28T08:31:08;18.00;86.60
19261;DHT22;9764;48.114;11.670;2023-02-28T08:33:37;18.00;85.80
19261;DHT22;9764;48.114;11.670;2023-02-28T08:36:07;18.00;85.80
19261;DHT22;9764;48.114;11.670;2023-02-28T08:38:36;18.00;85.70
19261;DHT22;9764;48.114;11.670;2023-02-28T08:41:06;18.00;85.70
19261;DHT22;9764;48.114;11.670;2023-02-28T08:43:37;18.00;85.70
19261;DHT22;9764;48.114;11.670;2023-02-28T08:46:06;18.00;85.70
19261;DHT22;9764;48.114;11.670;2023-02-28T08:48:35;18.00;85.60
19261;DHT22;9764;48.114;11.670;2023-02-28T08:51:08;18.00;85.60
19261;DHT22;9764;48.114;11.670;2023-02-28T08:53:38;18.10;85.70
19261;DHT22;9764;48.114;11.670;2023-02-28T08:56:08;18.00;85.60
19261;DHT22;9764;48.114;11.670;2023-02-28T08:58:38;18.10;85.60
19261;DHT22;9764;48.114;11.670;2023-02-28T09:01:11;18.10;85.60
19261;DHT22;9764;48.114;11.670;2023-02-28T09:03:40;18.10;85.60
19261;DHT22;9764;48.114;11.670;2023-02-28T09:06:09;18.10;85.60
19261;DHT22;9764;48.114;11.670;2023-02-28T09:08:38;18.10;86.30
19261;DHT22;9764;48.114;11.670;2023-02-28T09:11:07;18.10;85.50
19261;DHT22;9764;48.114;11.670;2023-02-28T09:13:37;18.10;85.50
19261;DHT22;9764;48.114;11.670;2023-02-28T09:16:07;18.10;85.50
19261;DHT22;9764;48.114;11.670;2023-02-28T09:18:38;18.10;85.50
19261;DHT22;9764;48.114;11.670;2023-02-28T09:21:07;18.10;85.40
19261;DHT22;9764;48.114;11.670;2023-02-28T09:23:36;18.10;85.40
19261;DHT22;9764;48.114;11.670;2023-02-28T09:26:06;18.10;85.40
19261;DHT22;9764;48.114;11.670;2023-02-28T09:28:35;18.10;85.40
19261;DHT22;9764;48.114;11.670;2023-02-28T09:31:05;18.10;85.30
19261;DHT22;9764;48.114;11.670;2023-02-28T09:33:33;18.10;85.30
19261;DHT22;9764;48.114;11.670;2023-02-28T09:36:03;18.10;86.10
19261;DHT22;9764;48.114;11.670;2023-02-28T09:38:31;18.10;85.30
19261;DHT22;9764;48.114;11.670;2023-02-28T09:41:03;18.10;85.30
19261;DHT22;9764;48.114;11.670;2023-02-28T09:43:34;18.10;85.30
19261;DHT22;9764;48.114;11.670;2023-02-28T09:46:11;18.10;85.30
19261;DHT22;9764;48.114;11.670;2023-02-28T09:48:45;18.20;85.30
19261;DHT22;9764;48.114;11.670;2023-02-28T09:51:29;18.20;85.20
19261;DHT22;9764;48.114;11.670;2023-02-28T09:53:59;18.20;85.20
19261;DHT22;9764;48.114;11.670;2023-02-28T09:56:31;18.20;85.20
19261;DHT22;9764;48.114;11.670;2023-02-28T09:59:04;18.20;85.10
19261;DHT22;9764;48.114;11.670;2023-02-28T10:01:41;18.20;85.10
19261;DHT22;9764;48.114;11.670;2023-02-28T10:04:16;18.20;85.00
19261;DHT22;9764;48.114;11.670;2023-02-28T10:06:48;18.20;85.00
19261;DHT22;9764;48.114;11.670;2023-02-28T10:09:21;18.20;85.00
19261;DHT22;9764;48.114;11.670;2023-02-28T10:11:52;18.20;85.00
19261;DHT22;9764;48.114;11.670;2023-02-28T10:14:26;18.30;85.00
19261;DHT22;9764;48.114;11.670;2023-02-28T10:17:00;18.30;84.90
19261;DHT22;9764;48.114;11.670;2023-02-28T10:19:33;18.30;84.90
19261;DHT22;9764;48.114;11.670;2023-02-28T10:22:06;18.30;84.90
19261;DHT22;9764;48.114;11.670;2023-02-28T10:24:41;18.30;84.90
19261;DHT22;9764;48.114;11.670;2023-02-28T10:27:15;18.30;84.90
19261;DHT22;9764;48.114;11.670;2023-02-28T10:29:45;18.40;84.80
19261;DHT22;9764;48.114;11.670;2023-02-28T10:32:17;18.40;84.80
19261;DHT22;9764;48.114;11.670;2023-02-28T10:34:51;18.40;84.60
19261;DHT22;9764;48.114;11.670;2023-02-28T10:37:20;18.40;84.60
19261;DHT22;9764;48.114;11.670;2023-02-28T10:39:49;18.40;84.50
19261;DHT22;9764;48.114;11.670;2023-02-28T10:42:23;18.50;85.40
19261;DHT22;9764;48.114;11.670;2023-02-28T10:45:09;18.50;84.50
19261;DHT22;9764;48.114;11.670;2023-02-28T10:47:50;18.50;84.50
19261;DHT22;9764;48.114;11.670;2023-02-28T10:50:28;18.50;84.40
19261;DHT22;9764;48.114;11.670;2023-02-28T10:53:14;18.60;84.40
19261;DHT22;9764;48.114;11.670;2023-02-28T10:55:44;18.60;84.40
19261;DHT22;9764;48.114;11.670;2023-02-28T10:58:21;18.60;84.40
19261;DHT22;9764;48.114;11.670;2023-02-28T11:00:51;18.60;84.30
19261;DHT22;9764;48.114;11.670;2023-02-28T11:03:34;18.60;84.30
19261;DHT22;9764;48.114;11.670;2023-02-28T11:06:08;18.60;84.20
19261;DHT22;9764;48.114;11.670;2023-02-28T11:08:46;18.70;84.30
19261;DHT22;9764;48.114;11.670;2023-02-28T11:11:15;18.70;84.30
19261;DHT22;9764;48.114;11.670;2023-02-28T11:13:47;18.70;84.20
19261;DHT22;9764;48.114;11.670;2023-02-28T11:16:18;18.70;84.20
19261;DHT22;9764;48.114;11.670;2023-02-28T11:18:50;18.70;84.20
19261;DHT22;9764;48.114;11.670;2023-02-28T11:21:23;18.70;84.20
19261;DHT22;9764;48.114;11.670;2023-02-28T11:23:56;18.70;84.20
19261;DHT22;9764;48.114;11.670;2023-02-28T11:26:40;18.70;84.20
19261;DHT22;9764;48.114;11.670;2023-02-28T11:29:14;18.70;84.10
19261;DHT22;9764;48.114;11.670;2023-02-28T11:31:45;18.70;84.10
19261;DHT22;9764;48.114;11.670;2023-02-28T11:34:30;18.70;84.10
19261;DHT22;9764;48.114;11.670;2023-02-28T11:37:00;18.70;84.20
19261;DHT22;9764;48.114;11.670;2023-02-28T11:39:32;18.70;84.10
19261;DHT22;9764;48.114;11.670;2023-02-28T11:42:11;18.70;84.20
19261;DHT22;9764;48.114;11.670;2023-02-28T11:44:52;18.70;84.20
19261;DHT22;9764;48.114;11.670;2023-02-28T11:47:30;18.70;84.20
19261;DHT22;9764;48.114;11.670;2023-02-28T11:50:20;18.70;84.20
19261;DHT22;9764;48.114;11.670;2023-02-28T11:52:52;18.70;84.20
19261;DHT22;9764;48.114;11.670;2023-02-28T11:55:25;18.80;84.30
19261;DHT22;9764;48.114;11.670;2023-02-28T11:58:15;18.70;84.20
19261;DHT22;9764;48.114;11.670;2023-02-28T12:01:01;18.80;84.30
19261;DHT22;9764;48.114;11.670;2023-02-28T12:03:39;18.70;84.20
19261;DHT22;9764;48.114;11.670;2023-02-28T12:06:20;18.70;84.30
19261;DHT22;9764;48.114;11.670;2023-02-28T12:09:11;18.70;84.30
19261;DHT22;9764;48.114;11.670;2023-02-28T12:11:50;18.70;84.30
19261;DHT22;9764;48.114;11.670;2023-02-28T12:14:47;18.70;84.30
19261;DHT22;9764;48.114;11.670;2023-02-28T12:17:26;18.70;84.30
19261;DHT22;9764;48.114;11.670;2023-02-28T12:20:05;18.70;84.30
19261;DHT22;9764;48.114;11.670;2023-02-28T12:22:46;18.70;84.40
19261;DHT22;9764;48.114;11.670;2023-02-28T12:25:56;18.70;84.30
19261;DHT22;9764;48.114;11.670;2023-02-28T12:28:31;18.70;84.40
19261;DHT22;9764;48.114;11.670;2023-02-28T12:31:09;18.70;84.30
19261;DHT22;9764;48.114;11.670;2023-02-28T12:33:43;18.80;84.30
19261;DHT22;9764;48.114;11.670;2023-02-28T12:36:16;18.80;84.30
19261;DHT22;9764;48.114;11.670;2023-02-28T12:38:50;18.80;84.40
19261;DHT22;9764;48.114;11.670;2023-02-28T12:41:29;18.80;84.40
19261;DHT22;9764;48.114;11.670;2023-02-28T12:44:04;18.80;84.30
19261;DHT22;9764;48.114;11.670;2023-02-28T12:46:36;18.80;84.20
19261;DHT22;9764;48.114;11.670;2023-02-28T12:49:10;18.80;84.20
19261;DHT22;9764;48.114;11.670;2023-02-28T12:51:41;18.90;84.20
19261;DHT22;9764;48.114;11.670;2023-02-28T12:54:19;18.90;84.20
19261;DHT22;9764;48.114;11.670;2023-02-28T12:56:55;18.90;84.20
19261;DHT22;9764;48.114;11.670;2023-02-28T12:59:27;18.90;84.10
19261;DHT22;9764;48.114;11.670;2023-02-28T13:05:29;19.00;84.30
19261;DHT22;9764;48.114;11.670;2023-02-28T13:08:24;19.00;84.00
19261;DHT22;9764;48.114;11.670;2023-02-28T13:10:57;19.00;84.10
19261;DHT22;9764;48.114;11.670;2023-02-28T13:13:28;19.00;84.00
19261;DHT22;9764;48.114;11.670;2023-02-28T13:16:02;19.00;84.00
19261;DHT22;9764;48.114;11.670;2023-02-28T13:18:34;19.00;84.00
19261;DHT22;9764;48.114;11.670;2023-02-28T13:21:06;19.00;84.00
19261;DHT22;9764;48.114;11.670;2023-02-28T13:23:41;19.10;84.00
19261;DHT22;9764;48.114;11.670;2023-02-28T13:29:34;19.10;84.00
19261;DHT22;9764;48.114;11.670;2023-02-28T13:32:29;19.00;84.00
19261;DHT22;9764;48.114;11.670;2023-02-28T13:38:39;19.10;84.00
19261;DHT22;9764;48.114;11.670;2023-02-28T13:41:40;19.10;84.00
19261;DHT22;9764;48.114;11.670;2023-02-28T13:44:10;19.10;84.10
19261;DHT22;9764;48.114;11.670;2023-02-28T13:49:42;19.10;84.10
19261;DHT22;9764;48.114;11.670;2023-02-28T13:52:14;19.10;84.10
19261;DHT22;9764;48.114;11.670;2023-02-28T13:55:21;19.10;84.10
19261;DHT22;9764;48.114;11.670;2023-02-28T13:58:15;19.10;84.10
19261;DHT22;9764;48.114;11.670;2023-02-28T14:01:03;19.10;84.10
19261;DHT22;9764;48.114;11.670;2023-02-28T14:03:48;19.20;84.20
19261;DHT22;9764;48.114;11.670;2023-02-28T14:06:26;19.10;84.10
19261;DHT22;9764;48.114;11.670;2023-02-28T14:08:59;19.20;84.20
19261;DHT22;9764;48.114;11.670;2023-02-28T14:11:32;19.20;84.20
19261;DHT22;9764;48.114;11.670;2023-02-28T14:14:03;19.20;84.10
19261;DHT22;9764;48.114;11.670;2023-02-28T14:16:40;19.20;84.10
19261;DHT22;9764;48.114;11.670;2023-02-28T14:19:13;19.10;84.10
19261;DHT22;9764;48.114;11.670;2023-02-28T14:21:56;19.10;84.10
19261;DHT22;9764;48.114;11.670;2023-02-28T14:24:48;19.20;84.20
19261;DHT22;9764;48.114;11.670;2023-02-28T14:27:27;19.20;84.20
19261;DHT22;9764;48.114;11.670;2023-02-28T14:30:10;19.20;84.20
19261;DHT22;9764;48.114;11.670;2023-02-28T14:32:46;19.20;84.20
19261;DHT22;9764;48.114;11.670;2023-02-28T14:35:26;19.20;84.20
19261;DHT22;9764;48.114;11.670;2023-02-28T14:37:58;19.20;84.20
19261;DHT22;9764;48.114;11.670;2023-02-28T14:40:30;19.20;85.10
19261;DHT22;9764;48.114;11.670;2023-02-28T14:43:01;19.20;84.20
19261;DHT22;9764;48.114;11.670;2023-02-28T14:45:31;19.20;84.20
19261;DHT22;9764;48.114;11.670;2023-02-28T14:48:01;19.20;84.20
19261;DHT22;9764;48.114;11.670;2023-02-28T14:50:33;19.20;84.30
19261;DHT22;9764;48.114;11.670;2023-02-28T14:53:10;19.20;84.30
19261;DHT22;9764;48.114;11.670;2023-02-28T14:55:46;19.20;84.30
19261;DHT22;9764;48.114;11.670;2023-02-28T14:58:22;19.20;84.20
19261;DHT22;9764;48.114;11.670;2023-02-28T15:00:52;19.20;84.20
19261;DHT22;9764;48.114;11.670;2023-02-28T15:03:23;19.20;84.20
19261;DHT22;9764;48.114;11.670;2023-02-28T15:05:53;19.10;84.10
19261;DHT22;9764;48.114;11.670;2023-02-28T15:08:24;19.20;84.20
19261;DHT22;9764;48.114;11.670;2023-02-28T15:10:55;19.10;84.10
19261;DHT22;9764;48.114;11.670;2023-02-28T15:13:29;19.20;84.20
19261;DHT22;9764;48.114;11.670;2023-02-28T15:16:02;19.20;84.10
19261;DHT22;9764;48.114;11.670;2023-02-28T15:18:39;19.20;84.10
19261;DHT22;9764;48.114;11.670;2023-02-28T15:21:13;19.20;84.10
19261;DHT22;9764;48.114;11.670;2023-02-28T15:23:49;19.20;84.10
19261;DHT22;9764;48.114;11.670;2023-02-28T15:26:21;19.20;84.10
19261;DHT22;9764;48.114;11.670;2023-02-28T15:28:51;19.20;84.10
19261;DHT22;9764;48.114;11.670;2023-02-28T15:31:26;19.20;84.10
19261;DHT22;9764;48.114;11.670;2023-02-28T15:34:05;19.20;84.10
19261;DHT22;9764;48.114;11.670;2023-02-28T15:36:34;19.20;84.10
19261;DHT22;9764;48.114;11.670;2023-02-28T15:39:18;19.20;84.00
19261;DHT22;9764;48.114;11.670;2023-02-28T15:41:47;19.20;84.00
19261;DHT22;9764;48.114;11.670;2023-02-28T15:44:22;19.20;84.10
19261;DHT22;9764;48.114;11.670;2023-02-28T15:46:59;19.20;84.10
19261;DHT22;9764;48.114;11.670;2023-02-28T15:49:32;19.20;84.10
19261;DHT22;9764;48.114;11.670;2023-02-28T15:52:13;19.20;84.10
19261;DHT22;9764;48.114;11.670;2023-02-28T15:54:46;19.10;84.00
19261;DHT22;9764;48.114;11.670;2023-02-28T15:57:18;19.20;84.20
19261;DHT22;9764;48.114;11.670;2023-02-28T15:59:51;19.10;84.00
19261;DHT22;9764;48.114;11.670;2023-02-28T16:02:22;19.20;84.10
19261;DHT22;9764;48.114;11.670;2023-02-28T16:05:22;19.20;84.10
19261;DHT22;9764;48.114;11.670;2023-02-28T16:07:56;19.20;84.20
19261;DHT22;9764;48.114;11.670;2023-02-28T16:10:27;19.10;84.10
19261;DHT22;9764;48.114;11.670;2023-02-28T16:12:57;19.10;84.10
19261;DHT22;9764;48.114;11.670;2023-02-28T16:15:27;19.10;84.10
19261;DHT22;9764;48.114;11.670;2023-02-28T16:17:57;19.10;84.10
19261;DHT22;9764;48.114;11.670;2023-02-28T16:20:27;19.10;84.20
19261;DHT22;9764;48.114;11.670;2023-02-28T16:22:56;19.10;84.10